LYBE/BEG METAR and TAF weather

Enter ICAO airport designator
Station Type Date Time Source
LYBE METAR 2020/07/10 15:00 UTC NOAA

LYBE 101500Z 13011KT 100V160 CAVOK 33/13 Q1015 NOSIG


Station Type Date Time Source
LYBE Decoded METAR 2020/07/10 15:00 UTC NOAA

Beograd / Surcin, Serbia and Montenegro (LYBE) 44-49N 020-17E 99M
Jul 10, 2020 - 11:00 AM EDT / 2020.07.10 1500 UTC
Wind: from the SE (130 degrees) at 13 MPH (11 KT) (direction variable):0
Visibility: greater than 7 mile(s):0
Temperature: 91 F (33 C)
Dew Point: 55 F (13 C)
Relative Humidity: 29%
Pressure (altimeter): 29.97 in. Hg (1015 hPa)
ob: LYBE 101500Z 13011KT 100V160 CAVOK 33/13 Q1015 NOSIG
cycle: 15

Station Type Date Time Source
LYBE TAF 2020/07/10 12:22 UTC NOAA

TAF LYBE 101100Z 1012/1112 13012KT CAVOK TX32/1014Z TN19/1103Z
TEMPO 1012/1016 13022KT
TEMPO 1106/1112 13015G25KT

Example: see airport list